createdAt,value
2019-05-01T00:00:46.407Z,9.9
2019-05-01T00:01:21.003Z,9.9
2019-05-01T00:01:55.624Z,9.8
2019-05-01T00:02:31.264Z,9.8
2019-05-01T00:03:06.944Z,9.8
2019-05-01T00:03:42.568Z,9.8
2019-05-01T00:04:18.240Z,9.8
2019-05-01T00:05:29.003Z,9.8
2019-05-01T00:10:45.197Z,9.6
2019-05-01T00:11:20.821Z,9.6
2019-05-01T00:19:38.860Z,9.5
2019-05-01T00:23:09.126Z,9.5
2019-05-01T00:25:28.066Z,9.5
2019-05-01T00:26:02.667Z,9.5
2019-05-01T00:26:37.289Z,9.5
2019-05-01T00:28:55.684Z,9.5
2019-05-01T00:29:30.263Z,9.4
2019-05-01T00:30:06.510Z,9.5
2019-05-01T00:30:41.109Z,9.4
2019-05-01T00:31:51.822Z,9.4
2019-05-01T00:32:27.472Z,9.4
2019-05-01T00:33:03.147Z,9.4
2019-05-01T00:35:26.787Z,9.4
2019-05-01T00:36:02.440Z,9.4
2019-05-01T00:36:38.099Z,9.4
2019-05-01T00:37:51.337Z,9.4
2019-05-01T00:38:24.511Z,9.4
2019-05-01T00:39:00.179Z,9.4
2019-05-01T00:39:35.808Z,9.3
2019-05-01T00:42:28.856Z,9.3
2019-05-01T00:45:21.866Z,9.3
2019-05-01T00:45:56.442Z,9.3
2019-05-01T00:46:31.050Z,9.3
2019-05-01T00:47:05.683Z,9.3
2019-05-01T00:47:40.315Z,9.3
2019-05-01T00:49:58.671Z,9.3
2019-05-01T00:50:33.311Z,9.3
2019-05-01T00:51:07.880Z,9.3
2019-05-01T00:52:51.703Z,9.3
2019-05-01T00:54:00.900Z,9.3
2019-05-01T00:54:35.504Z,9.3
2019-05-01T00:56:53.901Z,9.2
2019-05-01T00:57:29.556Z,9.2
2019-05-01T00:58:04.725Z,9.2
2019-05-01T00:58:40.338Z,9.2
2019-05-01T00:59:51.648Z,9.2
2019-05-01T01:00:27.330Z,9.2
2019-05-01T01:01:04.177Z,9.2
2019-05-01T01:01:38.597Z,9.2
2019-05-01T01:03:25.056Z,9.2
2019-05-01T01:04:00.700Z,9.2
2019-05-01T01:06:22.236Z,9.2
2019-05-01T01:06:57.890Z,9.2
2019-05-01T01:07:33.613Z,9.2
2019-05-01T01:09:53.028Z,9.1
2019-05-01T01:10:27.617Z,9.1
2019-05-01T01:11:02.229Z,9.1
2019-05-01T01:12:11.328Z,9.1
2019-05-01T01:13:54.692Z,9.1
2019-05-01T01:14:29.315Z,9.1
2019-05-01T01:15:03.915Z,9.1
2019-05-01T01:15:38.494Z,9.1
2019-05-01T01:16:13.147Z,9.1
2019-05-01T01:17:59.056Z,9.0
2019-05-01T01:18:34.686Z,9.0
2019-05-01T01:19:10.360Z,9.0
2019-05-01T01:22:04.372Z,8.9
2019-05-01T01:22:38.978Z,8.9
2019-05-01T01:23:14.759Z,8.9
2019-05-01T01:24:22.834Z,8.9
2019-05-01T01:24:57.407Z,8.9
2019-05-01T01:25:32.024Z,8.9
2019-05-01T01:26:06.607Z,8.9
2019-05-01T01:28:25.549Z,8.9
2019-05-01T01:29:00.749Z,8.9
2019-05-01T01:29:35.788Z,8.9
2019-05-01T01:30:10.414Z,8.9
2019-05-01T01:31:55.782Z,8.9
2019-05-01T01:32:30.382Z,8.9
2019-05-01T01:33:05.507Z,8.9
2019-05-01T01:33:40.173Z,8.9
2019-05-01T01:35:23.923Z,8.9
2019-05-01T01:35:58.518Z,8.9
2019-05-01T01:36:33.143Z,8.9
2019-05-01T01:37:07.723Z,8.9
2019-05-01T01:37:42.347Z,8.8
2019-05-01T01:40:04.949Z,8.8
2019-05-01T01:40:41.142Z,8.8
2019-05-01T01:41:51.883Z,8.9
2019-05-01T01:42:27.030Z,8.8
2019-05-01T01:43:38.847Z,8.8
2019-05-01T01:45:26.846Z,8.9
2019-05-01T01:46:01.970Z,8.9
2019-05-01T01:46:37.133Z,8.9
2019-05-01T01:47:11.738Z,8.9
2019-05-01T01:48:21.990Z,8.9
2019-05-01T01:48:57.086Z,8.9
2019-05-01T01:49:31.721Z,8.9
2019-05-01T01:50:07.054Z,8.9
2019-05-01T01:50:41.979Z,8.9
2019-05-01T01:51:51.696Z,8.9
2019-05-01T01:52:26.823Z,8.9
2019-05-01T01:53:01.931Z,9.0
2019-05-01T01:53:37.601Z,9.0
2019-05-01T01:54:13.244Z,9.0
2019-05-01T01:55:24.014Z,9.1
2019-05-01T01:55:58.618Z,9.1
2019-05-01T01:56:33.215Z,9.1
2019-05-01T01:57:07.811Z,9.1
2019-05-01T01:57:42.422Z,9.1
2019-05-01T01:59:29.393Z,9.0
2019-05-01T02:00:41.763Z,9.0
2019-05-01T02:01:53.035Z,9.0
2019-05-01T02:02:29.226Z,9.0
2019-05-01T02:03:05.406Z,9.0
2019-05-01T02:03:41.057Z,9.0
2019-05-01T02:04:53.425Z,9.0
2019-05-01T02:05:29.034Z,9.0
2019-05-01T02:06:05.245Z,9.0
2019-05-01T02:06:41.425Z,9.0
2019-05-01T02:07:53.230Z,9.0
2019-05-01T02:08:29.397Z,9.0
2019-05-01T02:09:05.057Z,9.0
2019-05-01T02:09:41.276Z,9.0
2019-05-01T02:10:52.551Z,9.0
2019-05-01T02:12:03.830Z,9.0
2019-05-01T02:14:26.437Z,9.0
2019-05-01T02:15:02.107Z,9.0
2019-05-01T02:15:37.738Z,9.0
2019-05-01T02:16:12.894Z,9.0
2019-05-01T02:17:24.180Z,9.1
2019-05-01T02:17:58.791Z,9.1
2019-05-01T02:18:33.376Z,9.1
2019-05-01T02:19:07.995Z,9.1
2019-05-01T02:19:42.605Z,9.0
2019-05-01T02:20:53.912Z,9.1
2019-05-01T02:22:03.640Z,9.1
2019-05-01T02:22:38.793Z,9.1
2019-05-01T02:24:23.605Z,9.1
2019-05-01T02:24:58.748Z,9.1
2019-05-01T02:26:08.488Z,9.1
2019-05-01T02:26:43.934Z,9.1
2019-05-01T02:27:53.848Z,9.1
2019-05-01T02:28:28.443Z,9.1
2019-05-01T02:29:37.663Z,9.1
2019-05-01T02:31:27.807Z,9.1
2019-05-01T02:31:55.537Z,9.1
2019-05-01T02:32:30.661Z,9.1
2019-05-01T02:33:05.267Z,9.1
2019-05-01T02:33:39.873Z,9.2
2019-05-01T02:36:00.400Z,9.3
2019-05-01T02:36:35.033Z,9.2
2019-05-01T02:37:11.241Z,9.2
2019-05-01T02:38:22.978Z,9.3
2019-05-01T02:38:58.125Z,9.3
2019-05-01T02:39:32.709Z,9.3
2019-05-01T02:40:07.848Z,9.4
2019-05-01T02:40:44.151Z,9.5
2019-05-01T02:41:54.299Z,9.7
2019-05-01T02:42:28.873Z,9.8
2019-05-01T02:43:04.530Z,9.9
2019-05-01T02:43:39.653Z,10.0
2019-05-01T02:44:51.508Z,10.0
2019-05-01T02:45:27.145Z,10.0
2019-05-01T02:46:04.387Z,10.0
2019-05-01T02:46:38.963Z,10.2
2019-05-01T02:47:14.644Z,10.4
2019-05-01T02:48:25.400Z,10.5
2019-05-01T02:49:00.017Z,10.5
2019-05-01T02:49:35.181Z,10.6
2019-05-01T02:50:11.325Z,10.6
2019-05-01T02:51:22.095Z,10.5
2019-05-01T02:51:56.724Z,10.5
2019-05-01T02:52:31.279Z,10.5
2019-05-01T02:53:05.894Z,10.5
2019-05-01T02:53:40.490Z,10.5
2019-05-01T02:54:15.096Z,10.5
2019-05-01T02:55:24.293Z,10.5
2019-05-01T02:55:58.906Z,10.7
2019-05-01T02:56:33.696Z,10.7
2019-05-01T02:57:08.656Z,10.8
2019-05-01T02:57:44.810Z,10.8
2019-05-01T02:58:55.607Z,10.9
2019-05-01T02:59:30.185Z,10.9
2019-05-01T03:00:04.802Z,10.9
2019-05-01T03:00:39.943Z,10.9
2019-05-01T03:01:15.042Z,10.9
2019-05-01T03:02:59.923Z,11.0
2019-05-01T03:03:36.076Z,11.0
2019-05-01T03:04:11.733Z,11.1
2019-05-01T03:05:55.552Z,11.2
2019-05-01T03:06:30.698Z,11.3
2019-05-01T03:07:05.802Z,11.3
2019-05-01T03:07:40.997Z,11.4
2019-05-01T03:08:17.617Z,11.4
2019-05-01T03:08:52.764Z,11.4
2019-05-01T03:09:27.879Z,11.5
2019-05-01T03:10:02.533Z,11.5
2019-05-01T03:10:37.645Z,11.6
2019-05-01T03:11:13.788Z,11.6
2019-05-01T03:12:25.635Z,11.5
2019-05-01T03:13:00.739Z,11.4
2019-05-01T03:13:36.922Z,11.4
2019-05-01T03:14:12.612Z,11.4
2019-05-01T03:15:24.919Z,11.4
2019-05-01T03:16:00.604Z,11.4
2019-05-01T03:16:36.217Z,11.5
2019-05-01T03:17:11.377Z,11.5
2019-05-01T03:18:57.220Z,11.5
2019-05-01T03:19:31.348Z,11.4
2019-05-01T03:20:07.013Z,11.4
2019-05-01T03:20:42.793Z,11.4
2019-05-01T03:21:53.424Z,11.4
2019-05-01T03:23:38.262Z,11.5
2019-05-01T03:24:12.894Z,11.5
2019-05-01T03:25:23.171Z,11.4
2019-05-01T03:25:58.809Z,11.4
2019-05-01T03:26:34.466Z,11.4
2019-05-01T03:27:10.091Z,11.3
2019-05-01T03:27:44.695Z,11.2
2019-05-01T03:28:56.019Z,11.1
2019-05-01T03:29:31.141Z,11.0
2019-05-01T03:30:07.304Z,10.9
2019-05-01T03:30:41.923Z,10.9
2019-05-01T03:32:13.993Z,10.8
2019-05-01T03:32:28.351Z,10.8
2019-05-01T03:33:04.496Z,10.9
2019-05-01T03:33:39.137Z,11.0
2019-05-01T03:34:14.760Z,11.0
2019-05-01T03:35:26.627Z,10.9
2019-05-01T03:36:01.218Z,11.0
2019-05-01T03:36:36.832Z,10.9
2019-05-01T03:37:11.444Z,10.9
2019-05-01T03:38:21.693Z,10.9
2019-05-01T03:38:56.314Z,10.8
2019-05-01T03:39:31.429Z,10.8
2019-05-01T03:40:07.606Z,10.7
2019-05-01T03:42:29.806Z,10.4
2019-05-01T03:43:06.026Z,10.4
2019-05-01T03:43:41.005Z,10.4
2019-05-01T03:44:51.788Z,10.5
2019-05-01T03:45:26.924Z,10.5
2019-05-01T03:46:02.024Z,10.6
2019-05-01T03:46:37.682Z,10.6
2019-05-01T03:47:13.867Z,10.7
2019-05-01T03:48:58.761Z,10.7
2019-05-01T03:49:33.335Z,10.8
2019-05-01T03:50:08.987Z,10.8
2019-05-01T03:51:53.825Z,10.7
2019-05-01T03:52:28.429Z,10.7
2019-05-01T03:53:03.028Z,10.6
2019-05-01T03:53:38.675Z,10.5
2019-05-01T03:54:13.545Z,10.5
2019-05-01T03:55:24.095Z,10.3
2019-05-01T03:55:59.174Z,10.2
2019-05-01T03:56:35.382Z,10.2
2019-05-01T03:57:12.744Z,10.2
2019-05-01T03:57:46.150Z,10.1
2019-05-01T03:58:56.393Z,10.0
2019-05-01T03:59:32.558Z,10.0
2019-05-01T04:00:08.240Z,10.0
2019-05-01T04:00:43.902Z,9.9
2019-05-01T04:01:53.094Z,9.9
2019-05-01T04:02:33.368Z,9.9
2019-05-01T04:03:02.804Z,9.8
2019-05-01T04:04:13.617Z,9.9
2019-05-01T04:04:48.728Z,9.9
2019-05-01T04:05:24.413Z,10.0
2019-05-01T04:05:59.496Z,10.0
2019-05-01T04:06:35.667Z,10.0
2019-05-01T04:07:11.859Z,10.1
2019-05-01T04:08:22.152Z,10.4
2019-05-01T04:08:57.762Z,10.4
2019-05-01T04:09:33.451Z,10.5
2019-05-01T04:10:08.586Z,10.5
2019-05-01T04:10:43.662Z,10.5
2019-05-01T04:11:53.922Z,10.6
2019-05-01T04:12:29.058Z,10.6
2019-05-01T04:13:05.219Z,10.6
2019-05-01T04:15:26.250Z,10.2
2019-05-01T04:16:02.421Z,10.1
2019-05-01T04:16:38.152Z,10.0
2019-05-01T04:17:12.700Z,9.9
2019-05-01T04:17:47.355Z,9.8
2019-05-01T04:18:58.086Z,9.6
2019-05-01T04:19:33.704Z,9.5
2019-05-01T04:21:54.769Z,9.3
2019-05-01T04:22:29.358Z,9.3
2019-05-01T04:23:03.970Z,9.3
2019-05-01T04:23:39.085Z,9.2
2019-05-01T04:24:15.265Z,9.2
2019-05-01T04:25:26.582Z,9.2
2019-05-01T04:26:02.216Z,9.2
2019-05-01T04:26:37.860Z,9.2
2019-05-01T04:27:13.541Z,9.2
2019-05-01T04:28:24.322Z,9.1
2019-05-01T04:28:59.428Z,9.1
2019-05-01T04:29:34.576Z,9.1
2019-05-01T04:30:09.157Z,9.1
2019-05-01T04:30:44.315Z,9.1
2019-05-01T04:31:54.561Z,9.1
2019-05-01T04:32:29.134Z,9.2
2019-05-01T04:33:05.391Z,9.2
2019-05-01T04:33:41.495Z,9.2
2019-05-01T04:34:17.143Z,9.2
2019-05-01T04:34:53.323Z,9.2
2019-05-01T04:35:29.492Z,9.2
2019-05-01T04:36:05.165Z,9.2
2019-05-01T04:36:41.333Z,9.2
2019-05-01T04:37:17.552Z,9.2
2019-05-01T04:37:53.166Z,9.2
2019-05-01T04:38:29.327Z,9.2
2019-05-01T04:39:04.966Z,9.2
2019-05-01T04:39:40.659Z,9.2
2019-05-01T04:40:18.609Z,9.2
2019-05-01T04:40:51.963Z,9.1
2019-05-01T04:42:01.142Z,9.1
2019-05-01T04:42:36.181Z,9.1
2019-05-01T04:43:10.341Z,9.2
2019-05-01T04:43:45.485Z,9.2
2019-05-01T04:44:56.805Z,9.2
2019-05-01T04:45:32.454Z,9.2
2019-05-01T04:46:08.214Z,9.2
2019-05-01T04:46:43.726Z,9.2
2019-05-01T04:47:19.372Z,9.2
2019-05-01T04:47:55.047Z,9.2
2019-05-01T04:48:30.698Z,9.1
2019-05-01T04:49:05.286Z,9.1
2019-05-01T04:49:39.939Z,9.1
2019-05-01T04:51:23.697Z,9.1
2019-05-01T04:51:58.305Z,9.1
2019-05-01T04:52:32.901Z,9.1
2019-05-01T04:53:07.513Z,9.1
2019-05-01T04:53:42.098Z,9.1
2019-05-01T04:54:16.714Z,9.1
2019-05-01T04:54:51.863Z,9.1
2019-05-01T04:55:26.973Z,9.1
2019-05-01T04:56:01.603Z,9.1
2019-05-01T04:56:36.695Z,9.1
2019-05-01T04:57:12.935Z,9.1
2019-05-01T04:57:47.103Z,9.1
2019-05-01T04:58:56.678Z,9.1
2019-05-01T04:59:31.836Z,9.1
2019-05-01T05:00:06.974Z,9.1
2019-05-01T05:00:41.538Z,9.1
2019-05-01T05:01:16.676Z,9.1
2019-05-01T05:01:51.789Z,9.2
2019-05-01T05:02:27.972Z,9.2
2019-05-01T05:03:04.700Z,9.2
2019-05-01T05:03:39.291Z,9.2
2019-05-01T05:04:14.957Z,9.3
2019-05-01T05:05:24.125Z,9.3
2019-05-01T05:05:58.744Z,9.3
2019-05-01T05:06:33.332Z,9.4
2019-05-01T05:07:08.992Z,9.4
2019-05-01T05:07:45.179Z,9.4
2019-05-01T05:09:31.072Z,9.6
2019-05-01T05:10:06.730Z,9.6
2019-05-01T05:10:42.367Z,9.6
2019-05-01T05:11:53.674Z,9.6
2019-05-01T05:12:29.347Z,9.6
2019-05-01T05:13:04.997Z,9.6
2019-05-01T05:13:40.623Z,9.6
2019-05-01T05:14:16.291Z,9.6
2019-05-01T05:14:52.452Z,9.6
2019-05-01T05:15:28.631Z,9.6
2019-05-01T05:16:39.437Z,9.7
2019-05-01T05:17:14.558Z,9.7
2019-05-01T05:18:24.271Z,9.8
2019-05-01T05:18:59.388Z,9.8
2019-05-01T05:19:35.049Z,9.8
2019-05-01T05:20:11.708Z,9.8
2019-05-01T05:20:46.357Z,9.9
2019-05-01T05:22:30.689Z,9.9
2019-05-01T05:23:05.836Z,9.9
2019-05-01T05:23:40.420Z,9.9
2019-05-01T05:24:15.562Z,9.9
2019-05-01T05:25:25.821Z,9.9
2019-05-01T05:26:00.396Z,9.9
2019-05-01T05:26:35.527Z,9.9
2019-05-01T05:27:10.668Z,9.9
2019-05-01T05:27:45.829Z,9.9
2019-05-01T05:28:55.080Z,9.9
2019-05-01T05:29:29.597Z,9.9
2019-05-01T05:30:04.188Z,10.0
2019-05-01T05:30:39.843Z,10.0
2019-05-01T05:31:16.651Z,10.0
2019-05-01T05:32:26.799Z,10.0
2019-05-01T05:33:02.451Z,10.0
2019-05-01T05:34:13.740Z,10.0
2019-05-01T05:34:48.884Z,10.0
2019-05-01T05:35:24.669Z,10.0
2019-05-01T05:36:00.186Z,10.0
2019-05-01T05:36:35.838Z,10.0
2019-05-01T05:37:11.539Z,10.0
2019-05-01T05:37:47.130Z,10.0
2019-05-01T05:38:22.778Z,10.0
2019-05-01T05:39:34.108Z,10.1
2019-05-01T05:40:08.774Z,10.1
2019-05-01T05:41:17.904Z,10.2
2019-05-01T05:42:30.257Z,10.3
2019-05-01T05:43:04.863Z,10.4
2019-05-01T05:44:16.180Z,10.5
2019-05-01T05:46:00.494Z,10.5
2019-05-01T05:47:10.221Z,10.6
2019-05-01T05:48:22.597Z,10.6
2019-05-01T05:48:58.254Z,10.7
2019-05-01T05:49:32.861Z,10.7
2019-05-01T05:50:07.461Z,10.7
2019-05-01T05:50:42.052Z,10.8
2019-05-01T05:51:17.165Z,10.8
2019-05-01T05:51:53.337Z,10.8
2019-05-01T05:52:29.539Z,10.8
2019-05-01T05:53:05.190Z,10.9
2019-05-01T05:53:40.309Z,10.9
2019-05-01T05:54:15.448Z,10.9
2019-05-01T05:55:25.148Z,10.9
2019-05-01T05:56:34.365Z,10.9
2019-05-01T05:57:08.967Z,10.9
2019-05-01T05:57:43.689Z,10.9
2019-05-01T05:58:18.486Z,10.9
2019-05-01T05:58:52.767Z,10.9
2019-05-01T06:00:02.527Z,11.0
2019-05-01T06:00:38.228Z,11.0
2019-05-01T06:01:13.811Z,11.0
2019-05-01T06:02:25.112Z,11.1
2019-05-01T06:02:59.705Z,11.1
2019-05-01T06:03:35.192Z,11.1
2019-05-01T06:04:09.958Z,11.1
2019-05-01T06:04:45.108Z,11.2
2019-05-01T06:05:56.946Z,11.2
2019-05-01T06:06:33.089Z,11.2
2019-05-01T06:07:08.759Z,11.2
2019-05-01T06:07:43.887Z,11.3
2019-05-01T06:08:18.563Z,11.3
2019-05-01T06:08:53.092Z,11.3
2019-05-01T06:09:27.690Z,11.3
2019-05-01T06:10:02.296Z,11.3
2019-05-01T06:10:36.880Z,11.4
2019-05-01T06:12:24.892Z,11.5
2019-05-01T06:13:00.055Z,11.5
2019-05-01T06:13:35.151Z,11.5
2019-05-01T06:14:10.266Z,11.5
2019-05-01T06:14:44.869Z,11.5
2019-05-01T06:17:05.931Z,11.6
2019-05-01T06:18:16.170Z,11.7
2019-05-01T06:18:50.784Z,11.7
2019-05-01T06:19:25.373Z,11.7
2019-05-01T06:21:12.878Z,11.8
2019-05-01T06:21:48.195Z,11.8
2019-05-01T06:23:34.334Z,11.9
2019-05-01T06:24:42.582Z,12.0
2019-05-01T06:25:22.251Z,12.0
2019-05-01T06:25:54.073Z,12.0
2019-05-01T06:26:31.849Z,12.1
2019-05-01T06:27:04.116Z,12.1
2019-05-01T06:27:39.279Z,12.1
2019-05-01T06:28:14.468Z,12.2
2019-05-01T06:28:50.031Z,12.2
2019-05-01T06:29:26.307Z,12.2
2019-05-01T06:30:01.867Z,12.3
2019-05-01T06:30:36.457Z,12.3
2019-05-01T06:31:11.091Z,12.4
2019-05-01T06:31:46.706Z,12.4
2019-05-01T06:32:21.948Z,12.5
2019-05-01T06:32:57.082Z,12.5
2019-05-01T06:33:43.776Z,12.6
2019-05-01T06:34:08.271Z,12.6
2019-05-01T06:34:43.947Z,12.7
2019-05-01T06:35:18.519Z,12.7
2019-05-01T06:35:53.134Z,12.7
2019-05-01T06:36:27.730Z,12.7
2019-05-01T06:37:02.872Z,12.8
2019-05-01T06:37:39.058Z,12.8
2019-05-01T06:38:14.698Z,12.8
2019-05-01T06:39:24.417Z,12.9
2019-05-01T06:40:33.654Z,12.9
2019-05-01T06:41:08.229Z,12.9
2019-05-01T06:41:43.351Z,13.0
2019-05-01T06:42:19.576Z,13.0
2019-05-01T06:42:55.180Z,13.0
2019-05-01T06:43:32.397Z,13.1
2019-05-01T06:44:07.510Z,13.1
2019-05-01T06:44:44.151Z,13.2
2019-05-01T06:45:16.960Z,13.2
2019-05-01T06:45:52.666Z,13.2
2019-05-01T06:48:14.132Z,13.3
2019-05-01T06:48:48.785Z,13.3
2019-05-01T06:50:01.047Z,13.4
2019-05-01T06:50:36.941Z,13.4
2019-05-01T06:51:12.853Z,13.4
2019-05-01T06:51:47.898Z,13.4
2019-05-01T06:52:20.365Z,13.4
2019-05-01T06:52:59.723Z,13.5
2019-05-01T06:54:05.746Z,13.6
2019-05-01T06:54:41.408Z,13.6
2019-05-01T06:55:22.391Z,13.6
2019-05-01T06:56:28.386Z,13.7
2019-05-01T06:57:43.523Z,13.8
2019-05-01T06:58:14.725Z,13.8
2019-05-01T06:58:50.956Z,13.8
2019-05-01T06:59:30.813Z,13.8
2019-05-01T07:00:03.107Z,13.8
2019-05-01T07:00:39.088Z,13.8
2019-05-01T07:01:18.738Z,13.9
2019-05-01T07:01:53.027Z,13.9
2019-05-01T07:02:23.829Z,13.9
2019-05-01T07:02:58.430Z,13.9
2019-05-01T07:03:33.029Z,13.9
2019-05-01T07:04:07.661Z,13.9
2019-05-01T07:04:42.233Z,14.0
2019-05-01T07:05:17.977Z,14.0
2019-05-01T07:05:54.228Z,14.1
2019-05-01T07:06:30.925Z,14.1
2019-05-01T07:07:06.583Z,14.1
2019-05-01T07:07:38.381Z,14.2
2019-05-01T07:08:24.216Z,14.2
2019-05-01T07:08:50.272Z,14.3
2019-05-01T07:09:27.947Z,14.3
2019-05-01T07:10:43.450Z,14.3
2019-05-01T07:11:10.806Z,14.3
2019-05-01T07:11:47.353Z,14.3
2019-05-01T07:12:18.357Z,14.4
2019-05-01T07:12:54.011Z,14.4
2019-05-01T07:14:05.840Z,14.4
2019-05-01T07:14:42.041Z,14.4
2019-05-01T07:15:21.762Z,14.5
2019-05-01T07:15:52.820Z,14.5
2019-05-01T07:16:27.927Z,14.6
2019-05-01T07:17:04.116Z,14.5
2019-05-01T07:17:38.713Z,14.6
2019-05-01T07:18:14.370Z,14.6
2019-05-01T07:18:50.023Z,14.6
2019-05-01T07:20:36.495Z,14.6
2019-05-01T07:21:12.189Z,14.7
2019-05-01T07:21:46.688Z,14.7
2019-05-01T07:22:21.286Z,14.7
2019-05-01T07:22:55.892Z,14.7
2019-05-01T07:24:05.095Z,14.8
2019-05-01T07:24:40.773Z,14.7
2019-05-01T07:25:15.902Z,14.8
2019-05-01T07:27:03.906Z,14.9
2019-05-01T07:28:13.622Z,14.9
2019-05-01T07:28:48.757Z,14.9
2019-05-01T07:29:23.869Z,15.0
2019-05-01T07:30:35.715Z,15.0
2019-05-01T07:31:11.869Z,15.0
2019-05-01T07:31:47.518Z,15.0
2019-05-01T07:33:31.850Z,15.1
2019-05-01T07:34:16.223Z,15.1
2019-05-01T07:35:16.747Z,15.2
2019-05-01T07:37:03.787Z,15.3
2019-05-01T07:37:38.813Z,15.3
2019-05-01T07:38:13.927Z,15.3
2019-05-01T07:39:23.648Z,15.4
2019-05-01T07:41:12.356Z,15.4
2019-05-01T07:41:46.305Z,15.4
2019-05-01T07:42:21.914Z,15.4
2019-05-01T07:43:32.189Z,15.5
2019-05-01T07:44:06.793Z,15.5
2019-05-01T07:44:41.369Z,15.6
2019-05-01T07:45:17.049Z,15.6
2019-05-01T07:47:05.020Z,15.6
2019-05-01T07:47:41.235Z,15.7
2019-05-01T07:48:16.354Z,15.7
2019-05-01T07:48:51.017Z,15.7
2019-05-01T07:50:34.764Z,15.7
2019-05-01T07:51:09.335Z,15.7
2019-05-01T07:51:43.950Z,15.8
2019-05-01T07:52:19.627Z,15.8
2019-05-01T07:55:18.541Z,15.9
2019-05-01T07:57:03.145Z,15.9
2019-05-01T07:57:39.298Z,16.0
2019-05-01T07:58:15.657Z,16.0
2019-05-01T07:58:51.914Z,16.0
2019-05-01T08:00:03.214Z,16.0
2019-05-01T08:00:41.437Z,16.1
2019-05-01T08:01:17.651Z,16.1
2019-05-01T08:01:49.778Z,16.1
2019-05-01T08:02:25.746Z,16.1
2019-05-01T08:04:05.815Z,16.2
2019-05-01T08:04:41.489Z,16.2
2019-05-01T08:07:01.979Z,16.3
2019-05-01T08:07:36.642Z,16.3
2019-05-01T08:09:21.435Z,16.4
2019-05-01T08:10:33.872Z,16.4
2019-05-01T08:11:45.506Z,16.4
2019-05-01T08:12:23.877Z,16.5
2019-05-01T08:14:07.414Z,16.5
2019-05-01T08:14:40.724Z,16.5
2019-05-01T08:15:15.342Z,16.5
2019-05-01T08:17:36.910Z,16.6
2019-05-01T08:18:12.550Z,16.6
2019-05-01T08:19:22.264Z,16.7
2019-05-01T08:20:31.997Z,16.7
2019-05-01T08:21:07.143Z,16.8
2019-05-01T08:21:43.306Z,16.8
2019-05-01T08:22:18.948Z,16.8
2019-05-01T08:23:31.301Z,16.8
2019-05-01T08:24:08.680Z,16.8
2019-05-01T08:24:43.166Z,16.8
2019-05-01T08:25:19.312Z,16.9
2019-05-01T08:27:04.221Z,16.9
2019-05-01T08:27:37.714Z,17.0
2019-05-01T08:28:12.855Z,17.0
2019-05-01T08:28:48.498Z,17.0
2019-05-01T08:30:35.453Z,17.0
2019-05-01T08:31:46.232Z,17.1
2019-05-01T08:32:20.831Z,17.1
2019-05-01T08:34:06.223Z,17.1
2019-05-01T08:34:48.662Z,17.2
2019-05-01T08:37:06.513Z,17.2
2019-05-01T08:38:16.406Z,17.2
2019-05-01T08:40:02.223Z,17.3
2019-05-01T08:40:37.289Z,17.3
2019-05-01T08:41:11.441Z,17.3
2019-05-01T08:42:20.101Z,17.4
2019-05-01T08:43:31.392Z,17.4
2019-05-01T08:44:07.578Z,17.4
2019-05-01T08:44:43.756Z,17.4
2019-05-01T08:45:19.419Z,17.4
2019-05-01T08:47:05.315Z,17.5
2019-05-01T08:47:40.431Z,17.5
2019-05-01T08:48:15.564Z,17.5
2019-05-01T08:50:36.609Z,17.6
2019-05-01T08:51:12.250Z,17.6
2019-05-01T08:51:47.916Z,17.6
2019-05-01T08:53:34.867Z,17.6
2019-05-01T08:54:10.517Z,17.6
2019-05-01T08:55:21.283Z,17.6
2019-05-01T08:56:32.591Z,17.6
2019-05-01T08:57:08.257Z,17.6
2019-05-01T08:57:43.894Z,17.6
2019-05-01T08:58:19.552Z,17.6
2019-05-01T09:00:07.177Z,17.6
2019-05-01T09:00:42.664Z,17.6
2019-05-01T09:01:18.415Z,17.7
2019-05-01T09:02:08.365Z,17.7
2019-05-01T09:03:08.343Z,17.7
2019-05-01T09:03:38.850Z,17.7
2019-05-01T09:04:13.549Z,17.8
2019-05-01T09:05:01.524Z,17.8
2019-05-01T09:06:39.214Z,17.8
2019-05-01T09:07:14.593Z,17.8
2019-05-01T09:07:51.078Z,17.8
2019-05-01T09:08:26.937Z,17.8
2019-05-01T09:09:33.567Z,17.9
2019-05-01T09:10:09.181Z,17.9
2019-05-01T09:11:17.951Z,18.0
2019-05-01T09:11:54.593Z,18.0
2019-05-01T09:13:38.622Z,18.0
2019-05-01T09:14:14.801Z,18.0
2019-05-01T09:14:51.355Z,18.1
2019-05-01T09:17:47.664Z,18.2
2019-05-01T09:18:23.392Z,18.2
2019-05-01T09:20:10.263Z,18.3
2019-05-01T09:21:19.488Z,18.3
2019-05-01T09:21:54.086Z,18.3
2019-05-01T09:23:03.290Z,18.4
2019-05-01T09:23:38.956Z,18.4
2019-05-01T09:24:14.580Z,18.4
2019-05-01T09:24:50.755Z,18.4
2019-05-01T09:26:38.772Z,18.4
2019-05-01T09:27:14.957Z,18.4
2019-05-01T09:27:51.780Z,18.4
2019-05-01T09:29:02.955Z,18.4
2019-05-01T09:29:38.656Z,18.4
2019-05-01T09:30:14.841Z,18.4
2019-05-01T09:30:50.974Z,18.4
2019-05-01T09:32:04.944Z,18.5
2019-05-01T09:32:37.892Z,18.5
2019-05-01T09:33:13.023Z,18.5
2019-05-01T09:33:47.633Z,18.5
2019-05-01T09:34:22.749Z,18.5
2019-05-01T09:35:33.556Z,18.6
2019-05-01T09:36:45.884Z,18.6
2019-05-01T09:37:21.537Z,18.6
2019-05-01T09:38:32.309Z,18.6
2019-05-01T09:39:08.964Z,18.6
2019-05-01T09:39:43.617Z,18.7
2019-05-01T09:40:18.227Z,18.7
2019-05-01T09:40:52.826Z,18.6
2019-05-01T09:42:06.463Z,18.6
2019-05-01T09:42:39.780Z,18.6
2019-05-01T09:43:15.437Z,18.6
2019-05-01T09:43:51.087Z,18.6
2019-05-01T09:45:02.390Z,18.6
2019-05-01T09:45:38.031Z,18.7
2019-05-01T09:46:13.185Z,18.7
2019-05-01T09:46:47.802Z,18.7
2019-05-01T09:47:22.375Z,18.7
2019-05-01T09:48:31.577Z,18.7
2019-05-01T09:49:40.777Z,18.7
2019-05-01T09:50:15.396Z,18.8
2019-05-01T09:50:51.045Z,18.8
2019-05-01T09:51:26.181Z,18.8
2019-05-01T09:52:01.826Z,18.9
2019-05-01T09:52:36.429Z,18.9
2019-05-01T09:53:11.171Z,18.9
2019-05-01T09:53:45.634Z,18.9
2019-05-01T09:54:20.248Z,18.9
2019-05-01T09:56:07.630Z,19.0
2019-05-01T09:56:42.306Z,19.0
2019-05-01T09:57:18.503Z,19.0
2019-05-01T09:57:54.676Z,19.0
2019-05-01T09:59:06.496Z,19.0
2019-05-01T09:59:42.677Z,19.0
2019-05-01T10:00:18.315Z,19.0
2019-05-01T10:03:16.832Z,19.0
2019-05-01T10:03:54.401Z,19.0
2019-05-01T10:05:06.622Z,19.0
2019-05-01T10:06:17.100Z,19.1
2019-05-01T10:06:52.181Z,19.1
2019-05-01T10:08:04.026Z,19.1
2019-05-01T10:09:11.908Z,19.1
2019-05-01T10:09:47.114Z,19.1
2019-05-01T10:11:35.852Z,19.2
2019-05-01T10:12:11.450Z,19.2
2019-05-01T10:12:46.841Z,19.2
2019-05-01T10:13:22.306Z,19.3
2019-05-01T10:13:58.340Z,19.3
2019-05-01T10:14:31.566Z,19.3
2019-05-01T10:15:05.926Z,19.3
2019-05-01T10:16:15.287Z,19.3
2019-05-01T10:16:49.235Z,19.3
2019-05-01T10:17:23.817Z,19.3
2019-05-01T10:18:33.028Z,19.3
2019-05-01T10:19:07.643Z,19.3
2019-05-01T10:19:44.304Z,19.4
2019-05-01T10:20:17.891Z,19.4
2019-05-01T10:20:54.068Z,19.4
2019-05-01T10:22:05.385Z,19.4
2019-05-01T10:22:41.543Z,19.4
2019-05-01T10:23:17.724Z,19.4
2019-05-01T10:23:53.777Z,19.4
2019-05-01T10:25:08.459Z,19.4
2019-05-01T10:25:42.751Z,19.4
2019-05-01T10:26:18.928Z,19.4
2019-05-01T10:26:55.040Z,19.4
2019-05-01T10:28:07.042Z,19.4
2019-05-01T10:28:44.930Z,19.5
2019-05-01T10:29:16.866Z,19.5
2019-05-01T10:29:51.463Z,19.5
2019-05-01T10:31:01.770Z,19.5
2019-05-01T10:31:36.838Z,19.5
2019-05-01T10:32:11.485Z,19.5
2019-05-01T10:32:46.576Z,19.5
2019-05-01T10:33:21.708Z,19.5
2019-05-01T10:34:31.423Z,19.6
2019-05-01T10:35:07.611Z,19.6
2019-05-01T10:35:44.849Z,19.6
2019-05-01T10:36:20.576Z,19.6
2019-05-01T10:36:55.850Z,19.6
2019-05-01T10:37:33.518Z,19.6
2019-05-01T10:38:09.281Z,19.6
2019-05-01T10:38:44.872Z,19.6
2019-05-01T10:39:19.682Z,19.7
2019-05-01T10:39:53.993Z,19.7
2019-05-01T10:41:04.128Z,19.8
2019-05-01T10:41:41.000Z,19.8
2019-05-01T10:42:13.842Z,19.8
2019-05-01T10:42:49.553Z,19.8
2019-05-01T10:43:25.229Z,19.8
2019-05-01T10:44:37.013Z,19.8
2019-05-01T10:45:13.163Z,19.8
2019-05-01T10:45:48.801Z,19.8
2019-05-01T10:46:25.129Z,19.8
2019-05-01T10:47:38.105Z,19.9
2019-05-01T10:48:11.934Z,19.9
2019-05-01T10:48:47.077Z,19.9
2019-05-01T10:49:21.661Z,19.9
2019-05-01T10:51:07.071Z,19.9
2019-05-01T10:51:42.195Z,19.9
2019-05-01T10:52:16.803Z,19.9
2019-05-01T10:52:52.011Z,19.9
2019-05-01T10:54:02.164Z,19.9
2019-05-01T10:54:36.767Z,19.9
2019-05-01T10:55:11.882Z,19.9
2019-05-01T10:55:47.018Z,19.9
2019-05-01T10:56:22.140Z,19.9
2019-05-01T10:57:34.940Z,19.9
2019-05-01T10:58:07.010Z,19.9
2019-05-01T10:58:43.226Z,19.9
2019-05-01T10:59:16.729Z,19.9
2019-05-01T10:59:51.868Z,19.9
2019-05-01T11:01:02.119Z,20.0
2019-05-01T11:01:37.789Z,20.0
2019-05-01T11:02:13.953Z,20.0
2019-05-01T11:02:50.151Z,20.0
2019-05-01T11:03:25.806Z,20.0
2019-05-01T11:04:01.944Z,20.0
2019-05-01T11:04:38.121Z,20.0
2019-05-01T11:05:13.793Z,20.0
2019-05-01T11:05:55.871Z,20.0
2019-05-01T11:07:01.776Z,20.0
2019-05-01T11:07:37.980Z,20.0
2019-05-01T11:08:14.123Z,20.0
2019-05-01T11:08:49.802Z,20.0
2019-05-01T11:09:26.197Z,20.0
2019-05-01T11:10:02.122Z,20.1
2019-05-01T11:10:36.734Z,20.1
2019-05-01T11:11:11.858Z,20.1
2019-05-01T11:11:47.000Z,20.2
2019-05-01T11:12:22.669Z,20.2
2019-05-01T11:13:34.992Z,20.2
2019-05-01T11:14:10.666Z,20.2
2019-05-01T11:14:46.831Z,20.2
2019-05-01T11:15:22.485Z,20.2